createdAt,value
2018-04-19T00:02:17.712Z,10.10
2018-04-19T00:04:45.999Z,9.33
2018-04-19T00:07:14.289Z,10.53
2018-04-19T00:09:42.579Z,10.80
2018-04-19T00:12:11.598Z,11.53
2018-04-19T00:14:39.862Z,10.67
2018-04-19T00:17:08.130Z,10.37
2018-04-19T00:19:37.162Z,11.43
2018-04-19T00:22:05.444Z,12.77
2018-04-19T00:24:33.720Z,11.80
2018-04-19T00:27:02.008Z,9.97
2018-04-19T00:29:30.283Z,10.87
2018-04-19T00:31:58.551Z,9.67
2018-04-19T00:34:26.838Z,10.83
2018-04-19T00:36:55.164Z,9.20
2018-04-19T00:39:23.490Z,10.27
2018-04-19T00:41:51.759Z,10.77
2018-04-19T00:44:20.021Z,13.97
2018-04-19T00:46:48.304Z,12.00
2018-04-19T00:49:16.533Z,10.77
2018-04-19T00:51:45.568Z,10.43
2018-04-19T00:54:13.836Z,11.30
2018-04-19T00:56:42.089Z,11.80
2018-04-19T00:59:11.117Z,12.77
2018-04-19T01:01:39.371Z,12.57
2018-04-19T01:04:07.669Z,13.67
2018-04-19T01:06:35.974Z,13.97
2018-04-19T01:09:04.230Z,15.50
2018-04-19T01:11:32.490Z,13.60
2018-04-19T01:14:00.765Z,13.43
2018-04-19T01:16:29.026Z,11.77
2018-04-19T01:18:57.299Z,13.60
2018-04-19T01:21:25.559Z,14.27
2018-04-19T01:23:54.613Z,12.43
2018-04-19T01:26:22.903Z,13.67
2018-04-19T01:28:51.157Z,13.30
2018-04-19T01:31:19.430Z,11.23
2018-04-19T01:33:47.689Z,13.73
2018-04-19T01:36:23.839Z,10.17
2018-04-19T01:38:52.087Z,11.87
2018-04-19T01:41:21.140Z,12.17
2018-04-19T01:43:49.394Z,12.57
2018-04-19T01:46:17.666Z,11.70
2018-04-19T01:48:45.942Z,10.90
2018-04-19T01:51:14.210Z,10.43
2018-04-19T01:53:42.471Z,11.83
2018-04-19T01:56:11.494Z,10.20
2018-04-19T01:58:39.783Z,13.17
2018-04-19T02:01:08.059Z,12.37
2018-04-19T02:03:36.722Z,15.13
2018-04-19T02:06:05.087Z,11.53
2018-04-19T02:08:34.138Z,12.33
2018-04-19T02:11:02.366Z,14.93
2018-04-19T02:13:30.645Z,15.07
2018-04-19T02:15:58.909Z,12.53
2018-04-19T02:18:27.934Z,11.77
2018-04-19T02:20:56.207Z,13.90
2018-04-19T02:23:24.469Z,15.53
2018-04-19T02:25:52.743Z,13.17
2018-04-19T02:28:20.993Z,11.20
2018-04-19T02:30:50.019Z,14.40
2018-04-19T02:33:18.276Z,13.87
2018-04-19T02:35:48.260Z,13.43
2018-04-19T02:38:17.211Z,16.00
2018-04-19T02:40:45.484Z,11.43
2018-04-19T02:43:13.747Z,11.90
2018-04-19T02:45:42.015Z,12.83
2018-04-19T02:48:10.283Z,14.97
2018-04-19T02:50:39.332Z,15.23
2018-04-19T02:53:07.590Z,11.83
2018-04-19T02:55:35.914Z,16.37
2018-04-19T03:00:38.762Z,12.73
2018-04-19T03:03:07.035Z,16.23
2018-04-19T03:05:35.298Z,12.80
2018-04-19T03:08:03.561Z,13.50
2018-04-19T03:10:32.579Z,15.70
2018-04-19T03:13:00.866Z,14.33
2018-04-19T03:15:29.155Z,14.97
2018-04-19T03:17:57.426Z,13.27
2018-04-19T03:20:25.764Z,14.77
2018-04-19T03:22:53.982Z,11.83
2018-04-19T03:25:22.255Z,12.33
2018-04-19T03:27:50.510Z,12.27
2018-04-19T03:30:18.788Z,12.47
2018-04-19T03:32:47.043Z,12.77
2018-04-19T03:35:16.082Z,15.80
2018-04-19T03:37:44.359Z,12.80
2018-04-19T03:40:12.628Z,17.07
2018-04-19T03:42:40.883Z,13.20
2018-04-19T03:45:09.183Z,16.90
2018-04-19T03:47:37.447Z,16.57
2018-04-19T03:50:06.560Z,11.87
2018-04-19T03:52:34.825Z,13.17
2018-04-19T03:55:03.093Z,15.77
2018-04-19T03:57:31.359Z,13.97
2018-04-19T03:59:59.623Z,14.83
2018-04-19T04:02:27.905Z,14.70
2018-04-19T04:04:56.179Z,17.40
2018-04-19T04:07:24.515Z,14.27
2018-04-19T04:09:52.791Z,14.53
2018-04-19T04:12:21.080Z,13.73
2018-04-19T04:14:49.364Z,14.63
2018-04-19T04:17:29.254Z,13.87
2018-04-19T04:20:09.243Z,16.00
2018-04-19T04:22:49.259Z,12.83
2018-04-19T04:25:18.361Z,13.93
2018-04-19T04:27:46.635Z,17.43
2018-04-19T04:30:14.908Z,20.43
2018-04-19T04:32:43.226Z,13.73
2018-04-19T04:35:11.515Z,15.30
2018-04-19T04:37:39.782Z,16.07
2018-04-19T04:40:08.071Z,16.70
2018-04-19T04:42:36.368Z,19.33
2018-04-19T04:45:04.638Z,16.93
2018-04-19T04:47:32.918Z,18.27
2018-04-19T04:50:01.196Z,16.33
2018-04-19T04:52:29.500Z,19.20
2018-04-19T04:54:57.818Z,18.90
2018-04-19T04:57:26.095Z,19.13
2018-04-19T04:59:54.384Z,16.60
2018-04-19T05:02:22.646Z,16.30
2018-04-19T05:04:50.929Z,20.93
2018-04-19T05:07:19.210Z,21.63
2018-04-19T05:09:48.269Z,23.43
2018-04-19T05:12:16.566Z,20.13
2018-04-19T05:14:44.901Z,17.37
2018-04-19T05:17:13.170Z,16.50
2018-04-19T05:19:41.461Z,15.67
2018-04-19T05:22:09.731Z,16.13
2018-04-19T05:24:37.985Z,14.83
2018-04-19T05:27:06.300Z,18.13
2018-04-19T05:29:34.555Z,18.00
2018-04-19T05:32:02.905Z,15.17
2018-04-19T05:34:31.949Z,19.40
2018-04-19T05:37:00.244Z,19.07
2018-04-19T05:39:28.537Z,18.60
2018-04-19T05:41:56.808Z,17.43
2018-04-19T05:44:25.157Z,16.53
2018-04-19T05:46:53.399Z,18.30
2018-04-19T05:49:21.705Z,20.83
2018-04-19T05:51:49.959Z,20.00
2018-04-19T05:54:18.280Z,20.73
2018-04-19T05:56:46.542Z,23.53
2018-04-19T05:59:14.853Z,21.50
2018-04-19T06:01:43.123Z,18.73
2018-04-19T06:04:11.403Z,17.83
2018-04-19T06:06:39.693Z,20.40
2018-04-19T06:09:08.010Z,17.30
2018-04-19T06:11:36.270Z,22.10
2018-04-19T06:14:05.043Z,18.90
2018-04-19T06:16:34.157Z,16.27
2018-04-19T06:19:02.486Z,19.40
2018-04-19T06:21:30.778Z,20.83
2018-04-19T06:23:59.853Z,20.33
2018-04-19T06:26:28.142Z,18.80
2018-04-19T06:28:56.415Z,23.13
2018-04-19T06:31:24.752Z,19.23
2018-04-19T06:33:53.044Z,23.03
2018-04-19T06:36:21.294Z,18.47
2018-04-19T06:38:49.588Z,21.80
2018-04-19T06:41:17.888Z,22.63
2018-04-19T06:43:46.209Z,22.80
2018-04-19T06:46:15.242Z,19.97
2018-04-19T06:48:43.572Z,24.97
2018-04-19T06:51:12.673Z,20.40
2018-04-19T06:53:40.949Z,26.63
2018-04-19T06:56:09.314Z,23.93
2018-04-19T06:58:37.728Z,20.27
2018-04-19T07:01:06.597Z,23.47
2018-04-19T07:03:34.950Z,26.77
2018-04-19T07:06:03.228Z,29.50
2018-04-19T07:08:32.285Z,24.70
2018-04-19T07:11:00.664Z,22.23
2018-04-19T07:13:29.008Z,27.13
2018-04-19T07:15:57.311Z,25.67
2018-04-19T07:18:25.584Z,21.58
2018-04-19T07:20:53.904Z,20.35
2018-04-19T07:23:22.170Z,19.98
2018-04-19T07:25:50.465Z,15.27
2018-04-19T07:28:19.568Z,19.27
2018-04-19T07:30:47.871Z,16.00
2018-04-19T07:33:16.203Z,14.30
2018-04-19T07:35:44.465Z,16.20
2018-04-19T07:38:12.749Z,12.10
2018-04-19T07:40:41.048Z,14.70
2018-04-19T07:43:09.354Z,13.40
2018-04-19T07:45:37.631Z,12.90
2018-04-19T07:48:05.951Z,10.35
2018-04-19T07:50:34.299Z,10.07
2018-04-19T07:53:03.364Z,13.07
2018-04-19T07:55:32.389Z,11.93
2018-04-19T07:58:00.695Z,11.32
2018-04-19T08:00:28.972Z,9.85
2018-04-19T08:02:57.256Z,10.10
2018-04-19T08:05:26.430Z,14.38
2018-04-19T08:07:54.736Z,12.65
2018-04-19T08:10:23.045Z,13.35
2018-04-19T08:12:51.304Z,9.93
2018-04-19T08:15:19.597Z,10.40
2018-04-19T08:17:48.612Z,9.63
2018-04-19T08:20:16.906Z,8.20
2018-04-19T08:22:45.195Z,10.35
2018-04-19T08:25:13.592Z,7.25
2018-04-19T08:27:41.963Z,9.70
2018-04-19T08:30:10.258Z,10.50
2018-04-19T08:32:38.562Z,10.67
2018-04-19T08:35:06.833Z,9.40
2018-04-19T08:37:35.858Z,9.23
2018-04-19T08:40:04.119Z,10.90
2018-04-19T08:42:32.404Z,7.77
2018-04-19T08:45:00.672Z,7.30
2018-04-19T08:47:28.981Z,13.17
2018-04-19T08:49:57.336Z,8.27
2018-04-19T08:52:25.615Z,7.63
2018-04-19T08:54:53.902Z,9.13
2018-04-19T08:57:22.187Z,9.30
2018-04-19T08:59:50.486Z,7.17
2018-04-19T09:02:19.545Z,9.47
2018-04-19T09:04:47.834Z,7.13
2018-04-19T09:07:16.894Z,6.03
2018-04-19T09:09:45.241Z,7.03
2018-04-19T09:12:13.516Z,11.20
2018-04-19T09:14:42.587Z,12.07
2018-04-19T09:17:10.957Z,7.83
2018-04-19T09:19:39.358Z,13.37
2018-04-19T09:22:07.667Z,6.80
2018-04-19T09:24:36.702Z,10.97
2018-04-19T09:27:04.980Z,5.73
2018-04-19T09:29:33.262Z,30.50
2018-04-19T09:32:02.684Z,6.97
2018-04-19T09:34:31.000Z,9.27
2018-04-19T09:36:59.994Z,9.93
2018-04-19T09:39:28.296Z,6.53
2018-04-19T09:41:56.547Z,7.53
2018-04-19T09:44:24.858Z,10.20
2018-04-19T09:46:53.153Z,7.37
2018-04-19T09:49:21.400Z,7.93
2018-04-19T09:51:49.965Z,7.23
2018-04-19T09:54:19.016Z,6.10
2018-04-19T09:56:47.272Z,7.00
2018-04-19T09:59:15.549Z,5.83
2018-04-19T10:01:52.446Z,5.87
2018-04-19T10:04:26.326Z,5.97
2018-04-19T10:06:54.651Z,6.77
2018-04-19T10:09:23.735Z,10.57
2018-04-19T10:11:52.002Z,8.90
2018-04-19T10:14:20.261Z,10.73
2018-04-19T10:16:48.535Z,9.57
2018-04-19T10:19:16.838Z,9.03
2018-04-19T10:21:45.102Z,5.20
2018-04-19T10:24:13.359Z,5.60
2018-04-19T10:26:41.647Z,6.70
2018-04-19T10:29:09.880Z,5.63
2018-04-19T10:31:38.143Z,8.80
2018-04-19T10:34:06.420Z,4.90
2018-04-19T10:36:34.719Z,7.03
2018-04-19T10:39:03.016Z,4.53
2018-04-19T10:41:31.302Z,7.17
2018-04-19T10:43:59.562Z,9.20
2018-04-19T10:46:27.827Z,7.07
2018-04-19T10:48:56.152Z,7.47
2018-04-19T10:51:24.478Z,7.97
2018-04-19T10:53:52.733Z,9.60
2018-04-19T10:56:21.126Z,6.20
2018-04-19T10:58:49.394Z,6.77
2018-04-19T11:01:17.674Z,9.90
2018-04-19T11:03:45.941Z,8.07
2018-04-19T11:06:14.225Z,8.47
2018-04-19T11:08:42.478Z,4.40
2018-04-19T11:11:10.773Z,4.07
2018-04-19T11:13:39.022Z,4.70
2018-04-19T11:16:08.053Z,6.10
2018-04-19T11:18:36.311Z,7.40
2018-04-19T11:21:05.339Z,7.63
2018-04-19T11:23:33.591Z,6.20
2018-04-19T11:26:01.872Z,8.03
2018-04-19T11:28:30.159Z,8.73
2018-04-19T11:30:58.439Z,6.17
2018-04-19T11:33:26.699Z,6.57
2018-04-19T11:35:54.940Z,5.83
2018-04-19T11:38:23.226Z,9.73
2018-04-19T11:40:52.472Z,11.90
2018-04-19T11:43:20.746Z,13.80
2018-04-19T11:45:49.042Z,8.03
2018-04-19T11:48:17.289Z,6.10
2018-04-19T11:50:45.619Z,6.77
2018-04-19T11:53:13.854Z,10.77
2018-04-19T11:55:42.187Z,6.97
2018-04-19T11:58:11.273Z,7.07
2018-04-19T12:00:39.539Z,9.50
2018-04-19T12:03:07.900Z,9.03
2018-04-19T12:05:36.470Z,8.07
2018-04-19T12:08:04.724Z,9.27
2018-04-19T12:10:32.974Z,6.20
2018-04-19T12:13:02.005Z,10.70
2018-04-19T12:15:30.283Z,6.20
2018-04-19T12:17:58.570Z,9.90
2018-04-19T12:20:26.830Z,9.00
2018-04-19T12:22:55.111Z,10.87
2018-04-19T12:25:23.378Z,11.53
2018-04-19T12:27:51.666Z,8.73
2018-04-19T12:30:19.936Z,8.20
2018-04-19T12:32:48.216Z,9.90
2018-04-19T12:35:16.472Z,12.33
2018-04-19T12:37:44.768Z,8.97
2018-04-19T12:40:13.054Z,10.67
2018-04-19T12:42:41.342Z,9.27
2018-04-19T12:45:09.606Z,14.73
2018-04-19T12:47:38.635Z,8.90
2018-04-19T12:50:06.883Z,9.80
2018-04-19T12:52:35.134Z,8.87
2018-04-19T12:55:03.491Z,9.20
2018-04-19T12:57:31.784Z,10.13
2018-04-19T13:00:00.074Z,7.77
2018-04-19T13:02:28.335Z,10.15
2018-04-19T13:04:56.639Z,9.57
2018-04-19T13:07:24.936Z,17.20
2018-04-19T13:09:53.192Z,11.07
2018-04-19T13:12:21.464Z,10.60
2018-04-19T13:14:49.776Z,13.10
2018-04-19T13:17:18.046Z,9.85
2018-04-19T13:19:46.296Z,14.17
2018-04-19T13:22:14.590Z,12.07
2018-04-19T13:24:42.939Z,13.87
2018-04-19T13:27:12.063Z,12.27
2018-04-19T13:29:40.355Z,16.00
2018-04-19T13:32:08.622Z,8.57
2018-04-19T13:34:36.909Z,10.65
2018-04-19T13:37:05.178Z,14.97
2018-04-19T13:39:33.438Z,11.73
2018-04-19T13:42:01.713Z,10.57
2018-04-19T13:44:29.983Z,11.23
2018-04-19T13:46:58.252Z,10.80
2018-04-19T13:49:26.534Z,12.47
2018-04-19T13:51:54.845Z,15.27
2018-04-19T13:54:23.118Z,9.73
2018-04-19T13:56:52.150Z,9.73
2018-04-19T13:59:20.429Z,10.88
2018-04-19T14:01:48.708Z,11.10
2018-04-19T14:04:17.018Z,10.38
2018-04-19T14:06:45.272Z,11.40
2018-04-19T14:09:13.552Z,9.13
2018-04-19T14:11:41.799Z,15.45
2018-04-19T14:14:10.070Z,11.32
2018-04-19T14:16:38.348Z,9.45
2018-04-19T14:19:06.630Z,9.60
2018-04-19T14:21:34.905Z,10.32
2018-04-19T14:24:03.197Z,11.23
2018-04-19T14:26:31.514Z,14.65
2018-04-19T14:28:59.857Z,9.93
2018-04-19T14:31:28.871Z,12.73
2018-04-19T14:33:57.219Z,11.18
2018-04-19T14:36:25.479Z,10.25
2018-04-19T14:38:53.756Z,10.37
2018-04-19T14:41:22.018Z,9.67
2018-04-19T14:43:50.307Z,10.90
2018-04-19T14:46:18.578Z,11.33
2018-04-19T14:48:46.875Z,9.77
2018-04-19T14:51:15.140Z,11.50
2018-04-19T14:53:43.417Z,9.30
2018-04-19T14:56:11.704Z,8.98
2018-04-19T14:58:39.997Z,12.70
2018-04-19T15:01:08.289Z,12.80
2018-04-19T15:03:36.583Z,16.15
2018-04-19T15:06:04.916Z,11.55
2018-04-19T15:08:33.167Z,9.33
2018-04-19T15:11:03.111Z,10.97
2018-04-19T15:13:31.382Z,10.57
2018-04-19T15:15:59.669Z,10.47
2018-04-19T15:18:29.226Z,9.20
2018-04-19T15:20:57.526Z,9.30
2018-04-19T15:23:26.606Z,11.93
2018-04-19T15:25:54.900Z,10.03
2018-04-19T15:28:23.175Z,7.20
2018-04-19T15:30:51.465Z,9.45
2018-04-19T15:33:19.722Z,8.75
2018-04-19T15:35:48.776Z,10.30
2018-04-19T15:38:17.096Z,10.73
2018-04-19T15:40:45.442Z,11.07
2018-04-19T15:43:13.745Z,8.43
2018-04-19T15:45:42.001Z,11.57
2018-04-19T15:48:10.272Z,10.50
2018-04-19T15:50:39.269Z,10.00
2018-04-19T15:53:07.539Z,13.40
2018-04-19T15:55:35.837Z,12.20
2018-04-19T15:58:04.127Z,11.30
2018-04-19T16:00:32.402Z,8.23
2018-04-19T16:03:01.509Z,18.47
2018-04-19T16:05:29.788Z,12.27
2018-04-19T16:07:58.055Z,13.70
2018-04-19T16:10:26.325Z,9.15
2018-04-19T16:12:55.362Z,11.77
2018-04-19T16:15:23.719Z,8.85
2018-04-19T16:17:52.001Z,8.87
2018-04-19T16:20:20.262Z,8.48
2018-04-19T16:22:48.607Z,7.83
2018-04-19T16:25:16.874Z,6.60
2018-04-19T16:27:45.441Z,7.53
2018-04-19T16:30:13.760Z,7.62
2018-04-19T16:32:41.979Z,7.82
2018-04-19T16:35:10.305Z,6.62
2018-04-19T16:37:39.368Z,7.57
2018-04-19T16:40:07.643Z,8.18
2018-04-19T16:42:35.911Z,6.33
2018-04-19T16:45:04.257Z,9.68
2018-04-19T16:47:32.515Z,7.62
2018-04-19T16:50:01.577Z,9.67
2018-04-19T16:52:29.880Z,7.33
2018-04-19T16:54:58.944Z,6.47
2018-04-19T16:57:27.248Z,10.43
2018-04-19T16:59:56.303Z,9.23
2018-04-19T17:02:24.592Z,6.83
2018-04-19T17:04:52.870Z,7.87
2018-04-19T17:07:21.314Z,6.15
2018-04-19T17:09:49.674Z,8.75
2018-04-19T17:12:17.945Z,13.80
2018-04-19T17:14:46.264Z,9.70
2018-04-19T17:17:14.491Z,8.37
2018-04-19T17:19:43.534Z,8.67
2018-04-19T17:22:11.808Z,9.23
2018-04-19T17:24:40.109Z,8.50
2018-04-19T17:27:08.385Z,10.88
2018-04-19T17:29:36.737Z,5.30
2018-04-19T17:32:04.995Z,10.67
2018-04-19T17:34:33.346Z,14.77
2018-04-19T17:37:01.599Z,11.53
2018-04-19T17:39:29.918Z,6.87
2018-04-19T17:41:58.939Z,5.83
2018-04-19T17:44:27.226Z,8.03
2018-04-19T17:46:55.527Z,13.27
2018-04-19T17:49:23.839Z,9.73
2018-04-19T17:51:52.977Z,7.03
2018-04-19T17:54:21.280Z,20.90
2018-04-19T17:56:50.310Z,9.10
2018-04-19T17:59:18.659Z,7.87
2018-04-19T18:01:46.946Z,9.40
2018-04-19T18:04:16.030Z,9.07
2018-04-19T18:06:44.294Z,13.73
2018-04-19T18:09:12.649Z,9.23
2018-04-19T18:11:41.572Z,13.43
2018-04-19T18:14:10.693Z,8.00
2018-04-19T18:16:38.934Z,9.63
2018-04-19T18:21:46.138Z,9.23
2018-04-19T18:24:15.508Z,8.07
2018-04-19T18:26:50.410Z,10.40
2018-04-19T18:29:20.421Z,7.53
2018-04-19T18:31:51.493Z,8.63
2018-04-19T18:34:20.581Z,8.80
2018-04-19T18:36:52.763Z,12.80
2018-04-19T18:39:25.263Z,8.27
2018-04-19T18:41:55.925Z,11.70
2018-04-19T18:44:27.537Z,11.33
2018-04-19T18:46:55.939Z,10.63
2018-04-19T18:49:25.705Z,12.63
2018-04-19T18:51:54.993Z,13.20
2018-04-19T18:54:23.466Z,10.10
2018-04-19T18:56:54.997Z,13.27
2018-04-19T18:59:27.058Z,16.63
2018-04-19T19:01:58.397Z,11.20
2018-04-19T19:04:29.463Z,11.53
2018-04-19T19:06:58.541Z,11.60
2018-04-19T19:09:27.445Z,10.97
2018-04-19T19:12:00.002Z,11.73
2018-04-19T19:14:30.285Z,13.17
2018-04-19T19:16:58.659Z,9.23
2018-04-19T19:19:39.157Z,14.27
2018-04-19T19:22:07.433Z,11.23
2018-04-19T19:24:35.758Z,12.73
2018-04-19T19:27:04.247Z,10.67
2018-04-19T19:29:32.564Z,11.87
2018-04-19T19:32:01.012Z,11.43
2018-04-19T19:34:29.617Z,13.90
2018-04-19T19:36:57.895Z,12.93
2018-04-19T19:39:26.191Z,10.40
2018-04-19T19:41:54.509Z,9.53
2018-04-19T19:44:23.040Z,12.40
2018-04-19T19:46:51.322Z,11.57
2018-04-19T19:49:20.365Z,8.47
2018-04-19T19:51:48.618Z,12.33
2018-04-19T19:54:17.674Z,10.67
2018-04-19T19:56:45.959Z,10.73
2018-04-19T19:59:14.711Z,10.83
2018-04-19T20:01:42.993Z,11.57
2018-04-19T20:04:11.281Z,12.17
2018-04-19T20:06:39.563Z,12.00
2018-04-19T20:09:07.891Z,16.33
2018-04-19T20:11:36.926Z,12.23
2018-04-19T20:14:05.968Z,11.07
2018-04-19T20:16:35.033Z,12.73
2018-04-19T20:19:03.304Z,12.73
2018-04-19T20:21:31.612Z,11.27
2018-04-19T20:23:59.920Z,10.03
2018-04-19T20:26:28.203Z,10.10
2018-04-19T20:28:56.515Z,11.07
2018-04-19T20:31:24.849Z,18.10
2018-04-19T20:33:53.136Z,9.10
2018-04-19T20:36:21.435Z,9.37
2018-04-19T20:38:49.710Z,10.80
2018-04-19T20:41:17.977Z,10.73
2018-04-19T20:43:46.268Z,10.30
2018-04-19T20:46:14.560Z,10.20
2018-04-19T20:48:42.855Z,11.67
2018-04-19T20:51:11.134Z,10.93
2018-04-19T20:53:39.392Z,13.67
2018-04-19T20:56:07.669Z,12.23
2018-04-19T20:58:35.928Z,14.33
2018-04-19T21:01:04.234Z,10.40
2018-04-19T21:03:32.513Z,13.90
2018-04-19T21:06:01.593Z,17.13
2018-04-19T21:08:29.912Z,16.03
2018-04-19T21:10:58.263Z,12.93
2018-04-19T21:13:26.554Z,19.17
2018-04-19T21:15:54.863Z,9.63
2018-04-19T21:18:23.963Z,12.60
2018-04-19T21:20:52.292Z,14.87
2018-04-19T21:23:20.557Z,13.00
2018-04-19T21:25:48.824Z,10.13
2018-04-19T21:28:17.151Z,17.53
2018-04-19T21:30:45.494Z,10.67
2018-04-19T21:33:13.766Z,11.57
2018-04-19T21:35:42.026Z,15.17
2018-04-19T21:38:10.306Z,12.00
2018-04-19T21:40:38.554Z,16.90
2018-04-19T21:43:06.831Z,15.87
2018-04-19T21:45:35.102Z,15.63
2018-04-19T21:48:03.380Z,14.57
2018-04-19T21:50:31.665Z,16.17
2018-04-19T21:52:59.932Z,16.63
2018-04-19T21:55:28.225Z,14.40
2018-04-19T21:57:56.490Z,14.70
2018-04-19T22:00:24.794Z,19.50
2018-04-19T22:02:53.065Z,16.00
2018-04-19T22:05:21.359Z,19.67
2018-04-19T22:07:49.612Z,15.30
2018-04-19T22:10:17.895Z,9.77
2018-04-19T22:12:46.192Z,13.97
2018-04-19T22:15:14.474Z,10.73
2018-04-19T22:17:43.535Z,11.67
2018-04-19T22:20:11.813Z,13.53
2018-04-19T22:22:40.115Z,14.73
2018-04-19T22:25:08.452Z,11.07
2018-04-19T22:27:36.703Z,11.60
2018-04-19T22:30:04.982Z,10.10
2018-04-19T22:32:33.248Z,10.17
2018-04-19T22:35:02.284Z,10.67
2018-04-19T22:37:30.567Z,8.90
2018-04-19T22:39:59.737Z,9.10
2018-04-19T22:42:28.103Z,11.23
2018-04-19T22:44:56.392Z,11.17
2018-04-19T22:47:24.726Z,11.23
2018-04-19T22:49:53.769Z,6.73
2018-04-19T22:52:22.055Z,8.10
2018-04-19T22:54:50.455Z,8.87
2018-04-19T22:57:18.759Z,8.73
2018-04-19T22:59:47.861Z,8.37
2018-04-19T23:02:17.000Z,10.27
2018-04-19T23:04:45.254Z,8.87
2018-04-19T23:07:13.565Z,12.73
2018-04-19T23:09:41.951Z,10.63
2018-04-19T23:12:10.231Z,11.43
2018-04-19T23:14:38.781Z,10.30
2018-04-19T23:17:07.083Z,9.33
2018-04-19T23:19:35.348Z,8.73
2018-04-19T23:22:03.659Z,9.40
2018-04-19T23:24:31.932Z,13.20
2018-04-19T23:27:00.199Z,8.50
2018-04-19T23:29:28.463Z,10.00
2018-04-19T23:31:56.734Z,6.87
2018-04-19T23:34:25.017Z,8.43
2018-04-19T23:36:53.283Z,8.20
2018-04-19T23:39:21.515Z,9.50
2018-04-19T23:41:49.792Z,6.97
2018-04-19T23:44:18.051Z,7.53
2018-04-19T23:46:46.351Z,9.87
2018-04-19T23:49:15.403Z,11.60
2018-04-19T23:51:43.683Z,7.67
2018-04-19T23:54:11.982Z,8.10
2018-04-19T23:56:40.258Z,11.53
2018-04-19T23:59:08.520Z,12.10
